KTVI/TVI METAR and TAF weather

Enter ICAO airport designator
Station Type Date Time Source
KTVI METAR 2019/08/20 09:35 UTC NOAA

KTVI 200935Z AUTO 00000KT 7SM VCTS CLR 22/22 A3009 RMK AO2 LTG DSNT N


Station Type Date Time Source
KTVI Decoded METAR 2019/08/20 09:35 UTC NOAA

Thomasville, GA, United States (KTVI) 30-54-06N 083-52-53W
Aug 20, 2019 - 05:35 AM EDT / 2019.08.20 0935 UTC
Wind: Calm:0
Visibility: 7 mile(s):0
Sky conditions: clear
Weather: thunder in the vicinity; Lightning observed
Temperature: 71 F (22 C)
Dew Point: 71 F (22 C)
Relative Humidity: 100%
Pressure (altimeter): 30.09 in. Hg (1018 hPa)
ob: KTVI 200935Z AUTO 00000KT 7SM VCTS CLR 22/22 A3009 RMK AO2 LTG DSNT N
cycle: 9

Station Type Date Time Source
KTVI TAF UTC NOAA

Error!

Example: see airport list